Time;durP1;ratioP1;P1;durP2;ratioP2;P2;SDS_P1;SDS_P2;PMS_P1;PMS_P2;Temp;Humidity;BMP_temperature;BMP_pressure;BME280_temperature;BME280_humidity;BME280_pressure;Samples;Min_cycle;Max_cycle;Signal;HPM_P1;HPM_P2
2023/05/07 00:00:21;;;;;;;15.48;9.43;;;14.10;99.90;;;;;;5114574;28;20484;-76
2023/05/07 00:02:47;;;;;;;18.17;9.18;;;14.10;99.90;;;;;;5114603;28;20037;-76
2023/05/07 00:05:14;;;;;;;14.35;8.40;;;14.10;99.90;;;;;;5096308;28;20043;-76
2023/05/07 00:07:40;;;;;;;15.75;8.50;;;14.10;99.90;;;;;;5095781;28;20500;-76
2023/05/07 00:10:06;;;;;;;18.65;8.80;;;14.00;99.90;;;;;;5096096;28;20050;-76
2023/05/07 00:12:35;;;;;;;16.27;8.35;;;14.00;99.90;;;;;;5095982;28;20375;-76
2023/05/07 00:15:02;;;;;;;;;;;14.00;99.90;;;;;;5096390;28;20046;-76
2023/05/07 00:17:28;;;;;;;13.48;8.10;;;14.00;99.90;;;;;;5095973;28;20282;-76
2023/05/07 00:19:53;;;;;;;13.85;7.97;;;14.00;99.90;;;;;;5114274;28;20020;-76
2023/05/07 00:22:19;;;;;;;12.45;7.80;;;14.50;99.90;;;;;;5095947;28;20457;-76
2023/05/07 00:24:44;;;;;;;11.57;7.50;;;14.10;99.90;;;;;;5114140;28;20478;-76
2023/05/07 00:27:10;;;;;;;14.13;7.68;;;14.00;99.90;;;;;;5095814;28;20024;-76
2023/05/07 00:29:36;;;;;;;13.85;7.13;;;14.00;99.90;;;;;;5114032;28;20482;-76
2023/05/07 00:32:02;;;;;;;11.65;7.07;;;14.00;99.90;;;;;;5095677;28;20431;-76
2023/05/07 00:34:27;;;;;;;13.10;6.65;;;14.10;99.90;;;;;;5095670;28;20051;-76
2023/05/07 00:36:53;;;;;;;13.02;6.47;;;14.10;99.90;;;;;;5095801;28;20015;-76
2023/05/07 00:39:18;;;;;;;13.48;6.35;;;14.10;99.90;;;;;;5095589;28;20019;-76
2023/05/07 00:41:44;;;;;;;9.10;6.10;;;14.10;99.90;;;;;;5113794;28;20083;-76
2023/05/07 00:44:10;;;;;;;13.85;6.25;;;15.10;99.90;;;;;;5113909;28;20103;-76
2023/05/07 00:46:35;;;;;;;7.68;5.10;;;14.10;99.90;;;;;;5113806;28;20026;-76
2023/05/07 00:49:01;;;;;;;8.27;4.85;;;14.10;99.90;;;;;;5113770;28;20106;-76
2023/05/07 00:51:28;;;;;;;13.20;5.95;;;14.10;99.90;;;;;;5114314;28;20023;-76
2023/05/07 00:53:54;;;;;;;8.18;4.95;;;14.10;99.90;;;;;;5095585;28;20019;-76
2023/05/07 00:56:22;;;;;;;8.32;5.35;;;14.20;99.90;;;;;;5113768;28;20027;-76
2023/05/07 00:58:48;;;;;;;9.60;5.33;;;14.10;99.90;;;;;;5095310;28;20061;-76
2023/05/07 01:01:15;;;;;;;11.18;5.88;;;14.20;99.90;;;;;;5095378;28;20020;-76
2023/05/07 01:03:41;;;;;;;8.25;5.78;;;14.20;99.90;;;;;;5095311;28;20028;-76
2023/05/07 01:06:08;;;;;;;8.70;5.15;;;14.20;99.90;;;;;;5095381;28;20035;-76
2023/05/07 01:08:35;;;;;;;8.80;5.32;;;14.20;99.90;;;;;;5113545;28;20033;-76
2023/05/07 01:11:00;;;;;;;9.23;5.10;;;14.20;99.90;;;;;;5095393;28;20027;-75
2023/05/07 01:13:27;;;;;;;8.20;4.97;;;14.20;99.90;;;;;;5113801;28;20101;-76
2023/05/07 01:15:53;;;;;;;10.68;5.07;;;14.20;99.90;;;;;;5114016;28;20016;-76
2023/05/07 01:18:18;;;;;;;8.05;4.95;;;14.20;99.90;;;;;;5113323;28;20025;-76
2023/05/07 01:20:45;;;;;;;9.50;4.35;;;14.20;99.90;;;;;;5113598;28;20027;-76
2023/05/07 01:23:11;;;;;;;8.60;5.22;;;14.20;99.90;;;;;;5114780;28;20026;-76
2023/05/07 01:25:37;;;;;;;8.18;4.40;;;14.20;99.90;;;;;;5117841;28;20027;-76
2023/05/07 01:28:02;;;;;;;7.78;5.10;;;14.20;99.90;;;;;;5099273;28;20020;-76
2023/05/07 01:30:29;;;;;;;6.95;3.97;;;14.20;99.90;;;;;;5099316;28;20023;-76
2023/05/07 01:33:04;;;;;;;7.72;4.50;;;14.20;99.90;;;;;;5118154;28;20072;-75
2023/05/07 01:35:35;;;;;;;7.05;4.82;;;14.20;99.90;;;;;;5118029;28;20055;-76
2023/05/07 01:38:04;;;;;;;8.77;4.80;;;14.20;99.90;;;;;;5099138;28;20016;-76
2023/05/07 01:40:30;;;;;;;9.18;4.43;;;14.20;99.90;;;;;;5099205;28;20043;-76
2023/05/07 01:42:56;;;;;;;8.75;4.65;;;14.20;99.90;;;;;;5099038;28;20478;-76
2023/05/07 01:45:21;;;;;;;8.73;4.97;;;14.20;99.90;;;;;;5117821;28;20027;-76
2023/05/07 01:47:49;;;;;;;10.20;4.07;;;14.20;99.90;;;;;;5117168;28;20441;-76
2023/05/07 01:50:16;;;;;;;6.03;4.18;;;14.20;99.90;;;;;;5117190;28;20068;-76
2023/05/07 01:52:42;;;;;;;7.75;4.78;;;14.20;99.90;;;;;;5098870;28;20016;-76
2023/05/07 01:55:08;;;;;;;6.97;4.53;;;14.20;99.90;;;;;;5098542;28;20148;-76
2023/05/07 01:57:34;;;;;;;7.25;4.80;;;14.20;99.90;;;;;;5098594;28;20019;-76
2023/05/07 01:59:59;;;;;;;6.60;4.40;;;14.20;99.90;;;;;;5098642;28;20368;-76
2023/05/07 02:02:25;;;;;;;6.05;4.15;;;14.20;99.90;;;;;;5098677;28;20015;-76
2023/05/07 02:04:50;;;;;;;6.80;4.57;;;14.20;99.90;;;;;;5117179;28;20027;-76
2023/05/07 02:07:16;;;;;;;6.45;4.40;;;14.20;99.90;;;;;;5116803;28;20458;-76
2023/05/07 02:09:41;;;;;;;9.02;5.03;;;14.20;99.90;;;;;;5098615;28;20011;-76
2023/05/07 02:12:07;;;;;;;6.90;4.40;;;14.20;99.90;;;;;;5116827;28;20019;-76
2023/05/07 02:14:33;;;;;;;6.47;4.60;;;14.20;99.90;;;;;;5116625;28;20031;-75
2023/05/07 02:16:58;;;;;;;5.75;3.92;;;14.20;99.90;;;;;;5116737;28;20019;-76
2023/05/07 02:19:26;;;;;;;4.55;3.67;;;14.20;99.90;;;;;;5116579;28;20019;-76
2023/05/07 02:21:52;;;;;;;8.85;4.00;;;14.20;99.90;;;;;;5098592;28;20048;-76
2023/05/07 02:24:18;;;;;;;7.15;4.38;;;14.20;99.90;;;;;;5117137;28;20102;-76
2023/05/07 02:26:43;;;;;;;9.57;4.90;;;14.20;99.90;;;;;;5116485;28;20116;-76
2023/05/07 02:29:09;;;;;;;6.93;4.45;;;14.20;99.90;;;;;;5116397;28;20031;-76
2023/05/07 02:31:35;;;;;;;8.30;4.80;;;14.20;99.90;;;;;;5116402;28;20522;-76
2023/05/07 02:34:00;;;;;;;5.68;4.40;;;14.70;99.90;;;;;;5116132;28;20035;-76
2023/05/07 02:36:29;;;;;;;6.65;3.83;;;14.10;99.90;;;;;;5115617;28;20086;-76
2023/05/07 02:38:54;;;;;;;6.78;3.78;;;14.10;99.90;;;;;;5116094;28;20052;-76
2023/05/07 02:41:20;;;;;;;7.50;4.03;;;14.10;99.90;;;;;;5116314;28;20032;-76
2023/05/07 02:43:46;;;;;;;7.80;4.43;;;14.10;99.90;;;;;;5116217;28;20028;-76
2023/05/07 02:46:11;;;;;;;5.20;3.80;;;14.10;99.90;;;;;;5097733;28;20089;-76
2023/05/07 02:48:37;;;;;;;9.80;4.20;;;14.10;99.90;;;;;;5116242;28;20110;-76
2023/05/07 02:51:03;;;;;;;6.32;4.25;;;14.00;99.90;;;;;;5116527;28;20024;-76
2023/05/07 02:53:29;;;;;;;6.45;4.05;;;14.00;99.90;;;;;;5116463;28;20451;-76
2023/05/07 02:55:59;;;;;;;7.63;4.30;;;14.10;99.90;;;;;;5115838;28;20054;-76
2023/05/07 02:58:25;;;;;;;6.30;4.32;;;14.40;99.90;;;;;;5115808;28;20042;-76
2023/05/07 03:00:52;;;;;;;6.40;3.53;;;14.00;99.90;;;;;;5115880;28;20027;-74
2023/05/07 03:03:18;;;;;;;6.15;3.55;;;14.20;99.90;;;;;;5115772;28;20024;-76
2023/05/07 03:05:43;;;;;;;6.78;3.75;;;14.00;99.90;;;;;;5115719;28;20033;-76
2023/05/07 03:08:09;;;;;;;9.27;4.05;;;14.00;99.90;;;;;;5097379;28;20019;-76
2023/05/07 03:10:36;;;;;;;9.35;4.10;;;14.00;99.90;;;;;;5116201;28;20020;-76
2023/05/07 03:13:02;;;;;;;6.28;4.18;;;13.90;99.90;;;;;;5115453;28;20031;-76
2023/05/07 03:15:27;;;;;;;8.05;3.95;;;13.90;99.90;;;;;;5097197;28;20068;-76
2023/05/07 03:17:53;;;;;;;8.60;3.80;;;13.90;99.90;;;;;;5097119;28;20076;-76
2023/05/07 03:20:18;;;;;;;7.22;4.13;;;13.90;99.90;;;;;;5115344;28;20043;-76
2023/05/07 03:22:44;;;;;;;7.25;4.43;;;13.90;99.90;;;;;;5097129;28;20026;-76
2023/05/07 03:25:10;;;;;;;5.82;4.22;;;13.80;99.90;;;;;;5115995;28;20027;-76
2023/05/07 03:27:36;;;;;;;7.30;4.15;;;13.80;99.90;;;;;;5096978;28;20026;-76
2023/05/07 03:30:02;;;;;;;8.15;4.63;;;13.70;99.90;;;;;;5115262;28;20027;-76
2023/05/07 03:32:28;;;;;;;9.65;4.55;;;13.80;99.90;;;;;;5115245;28;20386;-76
2023/05/07 03:34:53;;;;;;;7.60;4.40;;;13.70;99.90;;;;;;5115577;28;20023;-76
2023/05/07 03:37:19;;;;;;;7.97;3.97;;;13.60;99.90;;;;;;5115078;28;20051;-76
2023/05/07 03:39:45;;;;;;;6.45;3.90;;;13.60;99.90;;;;;;5096850;28;20482;-76
2023/05/07 03:42:10;;;;;;;8.85;4.47;;;13.60;99.90;;;;;;5096733;28;20032;-76
2023/05/07 03:44:36;;;;;;;9.77;4.45;;;13.60;99.90;;;;;;5115633;28;20102;-76
2023/05/07 03:47:02;;;;;;;7.30;4.47;;;13.50;99.90;;;;;;5096301;28;20024;-75
2023/05/07 03:49:28;;;;;;;7.22;4.28;;;13.50;99.90;;;;;;5114767;28;20106;-76
2023/05/07 03:51:53;;;;;;;7.20;5.00;;;13.50;99.90;;;;;;5096829;28;20070;-76
2023/05/07 03:54:19;;;;;;;8.10;5.30;;;13.50;99.90;;;;;;5114760;28;20024;-76
2023/05/07 03:56:44;;;;;;;7.70;5.43;;;13.50;99.90;;;;;;5096367;28;20034;-76
2023/05/07 03:59:10;;;;;;;9.95;6.53;;;13.60;99.90;;;;;;5096355;28;20157;-76
2023/05/07 04:01:35;;;;;;;10.70;6.68;;;13.60;99.90;;;;;;5114558;28;20019;-75
2023/05/07 04:04:01;;;;;;;12.82;6.28;;;13.60;99.90;;;;;;5096339;28;20031;-76
2023/05/07 04:06:27;;;;;;;9.57;6.20;;;13.60;99.90;;;;;;5115010;28;20027;-75
2023/05/07 04:08:53;;;;;;;11.35;6.90;;;13.60;99.90;;;;;;5096103;28;20030;-76
2023/05/07 04:11:18;;;;;;;12.32;7.10;;;13.60;99.90;;;;;;5096194;28;20398;-76
2023/05/07 04:13:44;;;;;;;12.30;7.50;;;13.70;99.90;;;;;;5096136;28;20026;-76
2023/05/07 04:16:09;;;;;;;12.85;7.88;;;13.70;99.90;;;;;;5096169;28;20027;-76
2023/05/07 04:18:35;;;;;;;12.93;6.97;;;13.70;99.90;;;;;;5096044;28;20023;-76
2023/05/07 04:21:01;;;;;;;12.60;8.02;;;13.70;99.90;;;;;;5096090;28;20394;-76
2023/05/07 04:23:29;;;;;;;12.65;7.68;;;13.70;99.90;;;;;;5095985;28;20364;-75
2023/05/07 04:25:55;;;;;;;12.77;7.90;;;13.70;99.90;;;;;;5114305;28;20486;-77
2023/05/07 04:28:21;;;;;;;12.32;7.55;;;13.80;99.90;;;;;;5114420;28;20031;-77
2023/05/07 04:30:47;;;;;;;13.65;7.97;;;13.80;99.90;;;;;;5096393;28;20024;-77
2023/05/07 04:33:14;;;;;;;15.02;8.25;;;13.80;99.90;;;;;;5114788;28;20064;-77
2023/05/07 04:35:40;;;;;;;14.25;7.95;;;13.80;99.90;;;;;;5115042;28;20103;-77
2023/05/07 04:38:05;;;;;;;12.75;7.68;;;13.80;99.90;;;;;;5114477;28;20500;-77
2023/05/07 04:40:31;;;;;;;13.50;7.95;;;13.90;99.90;;;;;;5113890;28;20371;-77
2023/05/07 04:42:57;;;;;;;16.65;8.52;;;13.90;99.90;;;;;;5113690;28;20080;-77
2023/05/07 04:45:22;;;;;;;14.48;8.07;;;13.90;99.90;;;;;;5114187;28;20073;-77
2023/05/07 04:47:48;;;;;;;12.23;7.88;;;13.90;99.90;;;;;;5113694;28;20027;-77
2023/05/07 04:50:13;;;;;;;12.68;7.65;;;14.00;99.90;;;;;;5113714;28;20027;-77
2023/05/07 04:52:39;;;;;;;13.80;8.63;;;14.00;99.90;;;;;;5113719;28;20024;-77
2023/05/07 04:55:05;;;;;;;12.02;8.05;;;13.90;99.90;;;;;;5095306;28;20463;-77
2023/05/07 04:57:30;;;;;;;14.00;8.13;;;14.10;99.90;;;;;;5112776;28;20099;-77
2023/05/07 04:59:56;;;;;;;11.80;7.53;;;14.10;99.90;;;;;;5095295;28;20490;-77
2023/05/07 05:02:22;;;;;;;13.07;8.48;;;14.10;99.90;;;;;;5095294;28;20031;-77
2023/05/07 05:04:47;;;;;;;14.40;8.20;;;14.20;99.90;;;;;;5095367;28;20027;-77
2023/05/07 05:07:13;;;;;;;10.57;7.30;;;14.20;99.90;;;;;;5113893;28;20034;-77
2023/05/07 05:09:39;;;;;;;11.95;7.63;;;15.10;99.90;;;;;;5113859;28;20410;-77
2023/05/07 05:12:07;;;;;;;14.27;8.73;;;14.30;99.90;;;;;;5113540;28;20102;-77
2023/05/07 05:14:32;;;;;;;12.63;8.25;;;14.30;99.90;;;;;;5095051;28;20024;-77
2023/05/07 05:16:58;;;;;;;12.57;8.05;;;14.30;99.90;;;;;;5113339;28;20053;-77
2023/05/07 05:19:23;;;;;;;10.95;7.72;;;14.30;99.90;;;;;;5113412;28;20016;-78
2023/05/07 05:21:49;;;;;;;14.55;8.15;;;14.40;99.90;;;;;;5113455;28;20470;-77
2023/05/07 05:24:15;;;;;;;13.52;8.93;;;14.40;99.90;;;;;;5113483;28;20020;-77
2023/05/07 05:26:40;;;;;;;15.40;7.95;;;14.40;99.90;;;;;;5113353;28;20024;-77
2023/05/07 05:29:06;;;;;;;10.70;7.55;;;15.10;99.90;;;;;;5113482;28;20478;-77
2023/05/07 05:31:31;;;;;;;13.75;8.90;;;14.40;99.90;;;;;;5113619;28;20381;-77
2023/05/07 05:33:57;;;;;;;12.02;7.65;;;14.40;99.90;;;;;;5095029;28;20066;-77
2023/05/07 05:36:22;;;;;;;13.77;8.50;;;14.60;99.90;;;;;;5113307;28;20023;-77
2023/05/07 05:38:48;;;;;;;10.02;7.50;;;15.10;99.90;;;;;;5113137;28;20024;-77
2023/05/07 05:41:13;;;;;;;19.42;8.15;;;14.80;99.90;;;;;;5111191;28;20028;-77
2023/05/07 05:43:39;;;;;;;16.70;7.00;;;14.60;99.90;;;;;;5113218;28;20080;-77
2023/05/07 05:46:05;;;;;;;12.60;7.30;;;14.70;99.90;;;;;;5113430;28;20090;-77
2023/05/07 05:48:31;;;;;;;10.57;6.95;;;14.60;99.90;;;;;;5113049;28;20032;-77
2023/05/07 05:50:57;;;;;;;11.00;6.95;;;14.60;99.90;;;;;;5111787;28;20160;-77
2023/05/07 05:53:22;;;;;;;13.02;6.82;;;14.70;99.90;;;;;;5111719;28;20122;-77
2023/05/07 05:55:48;;;;;;;11.65;6.65;;;14.70;99.90;;;;;;5113088;28;20435;-77
2023/05/07 05:58:15;;;;;;;11.20;6.55;;;14.70;99.90;;;;;;5113064;28;20066;-77
2023/05/07 06:00:40;;;;;;;10.52;7.18;;;14.70;99.90;;;;;;5113101;28;20019;-77
2023/05/07 06:03:06;;;;;;;13.45;6.57;;;14.70;99.90;;;;;;5113011;28;20049;-77
2023/05/07 06:05:31;;;;;;;11.48;7.13;;;14.60;99.90;;;;;;5112987;28;20034;-77
2023/05/07 06:07:57;;;;;;;13.18;7.72;;;14.70;99.90;;;;;;5112995;28;20467;-77
2023/05/07 06:10:23;;;;;;;13.70;7.78;;;14.60;99.90;;;;;;5114736;28;20389;-77
2023/05/07 06:12:49;;;;;;;13.40;7.47;;;15.40;99.90;;;;;;5115354;28;20084;-77
2023/05/07 06:15:15;;;;;;;12.40;7.50;;;14.70;99.90;;;;;;5116574;28;20031;-77
2023/05/07 06:17:40;;;;;;;12.38;6.85;;;14.70;99.90;;;;;;5116493;28;20481;-77
2023/05/07 06:20:06;;;;;;;12.63;7.10;;;14.80;99.90;;;;;;5115285;28;20084;-77
2023/05/07 06:22:32;;;;;;;10.48;6.97;;;14.80;99.90;;;;;;5116533;28;20483;-77
2023/05/07 06:24:57;;;;;;;16.63;6.78;;;14.90;99.90;;;;;;5115066;28;20024;-77
2023/05/07 06:27:23;;;;;;;12.82;8.02;;;14.90;99.90;;;;;;5116366;28;20059;-77
2023/05/07 06:29:49;;;;;;;13.82;7.07;;;15.00;99.90;;;;;;5116438;28;20035;-77
2023/05/07 06:32:14;;;;;;;11.60;7.07;;;15.30;99.90;;;;;;5116542;28;20100;-77
2023/05/07 06:34:40;;;;;;;16.33;6.80;;;15.30;99.90;;;;;;5116304;28;20470;-77
2023/05/07 06:37:06;;;;;;;11.45;6.70;;;15.60;99.90;;;;;;5116050;28;20024;-77
2023/05/07 06:39:33;;;;;;;13.60;8.07;;;15.60;99.90;;;;;;5116168;28;20120;-77
2023/05/07 06:41:59;;;;;;;10.40;6.78;;;15.70;99.90;;;;;;5116043;28;20019;-77
2023/05/07 06:44:25;;;;;;;12.18;6.80;;;15.70;99.90;;;;;;5114919;28;20035;-77
2023/05/07 06:46:50;;;;;;;9.57;6.57;;;15.70;99.90;;;;;;5116031;28;20028;-77
2023/05/07 06:49:16;;;;;;;12.25;7.15;;;15.70;99.90;;;;;;5115907;28;20024;-77
2023/05/07 06:51:44;;;;;;;12.95;6.70;;;15.90;99.90;;;;;;5114759;28;20036;-77
2023/05/07 06:54:10;;;;;;;13.25;6.78;;;15.80;99.90;;;;;;5115970;28;20050;-77
2023/05/07 06:56:35;;;;;;;10.88;6.53;;;15.80;99.90;;;;;;5115886;28;20470;-77
2023/05/07 06:59:02;;;;;;;11.45;7.22;;;15.80;99.90;;;;;;5115723;28;20023;-77
2023/05/07 07:01:29;;;;;;;12.75;6.63;;;15.90;99.90;;;;;;5114542;28;20012;-77
2023/05/07 07:03:54;;;;;;;13.55;6.82;;;15.90;99.90;;;;;;5114554;28;20031;-77
2023/05/07 07:06:20;;;;;;;10.07;5.95;;;16.10;99.90;;;;;;5115852;28;20096;-77
2023/05/07 07:08:46;;;;;;;15.52;7.30;;;16.10;99.90;;;;;;5115567;28;20030;-77
2023/05/07 07:11:11;;;;;;;10.77;7.53;;;16.10;99.90;;;;;;5115549;28;20027;-77
2023/05/07 07:13:37;;;;;;;10.70;7.30;;;16.30;99.90;;;;;;5115473;28;20056;-77
2023/05/07 07:16:03;;;;;;;12.35;7.07;;;16.30;99.90;;;;;;5115480;28;20081;-77
2023/05/07 07:18:28;;;;;;;10.55;6.85;;;16.50;99.90;;;;;;5115418;28;20019;-77
2023/05/07 07:20:54;;;;;;;12.75;7.18;;;16.60;99.90;;;;;;5114664;28;20084;-77
2023/05/07 07:23:20;;;;;;;9.77;6.53;;;16.80;99.90;;;;;;5114254;28;20024;-77
2023/05/07 07:25:49;;;;;;;11.48;6.95;;;16.80;99.90;;;;;;5114080;28;20020;-77
2023/05/07 07:28:14;;;;;;;9.48;6.00;;;18.00;99.90;;;;;;5113878;28;20546;-77
2023/05/07 07:30:40;;;;;;;11.38;6.35;;;17.10;99.90;;;;;;5113919;28;20047;-77
2023/05/07 07:33:06;;;;;;;12.80;6.78;;;17.20;99.90;;;;;;5115050;28;20031;-77
2023/05/07 07:35:32;;;;;;;12.93;6.70;;;17.30;99.90;;;;;;5115215;28;20031;-77
2023/05/07 07:37:58;;;;;;;10.57;6.75;;;17.40;99.90;;;;;;5115029;28;20036;-77
2023/05/07 07:40:24;;;;;;;10.18;6.65;;;17.40;99.90;;;;;;5113698;28;20064;-77
2023/05/07 07:42:50;;;;;;;8.43;5.45;;;17.50;99.90;;;;;;5113468;28;20451;-77
2023/05/07 07:45:17;;;;;;;10.40;6.18;;;17.40;99.90;;;;;;5114931;28;20505;-77
2023/05/07 07:47:43;;;;;;;14.60;6.75;;;17.40;99.90;;;;;;5113410;28;20024;-77
2023/05/07 07:50:10;;;;;;;8.02;6.35;;;17.30;99.90;;;;;;5113534;28;20050;-77
2023/05/07 07:52:35;;;;;;;8.63;6.07;;;17.40;99.90;;;;;;5114806;28;20019;-77
2023/05/07 07:55:01;;;;;;;9.13;5.75;;;17.40;99.90;;;;;;5113223;28;20038;-77
2023/05/07 07:57:27;;;;;;;10.07;6.30;;;17.50;99.90;;;;;;5115004;28;20042;-77
2023/05/07 07:59:52;;;;;;;8.75;5.65;;;17.50;99.90;;;;;;5113389;28;20028;-77
2023/05/07 08:02:18;;;;;;;10.52;6.05;;;17.50;99.90;;;;;;5114483;28;20020;-77
2023/05/07 08:04:44;;;;;;;10.20;6.85;;;17.50;99.90;;;;;;5114543;28;20028;-77
2023/05/07 08:07:12;;;;;;;12.32;6.18;;;17.50;99.90;;;;;;5113130;28;20016;-77
2023/05/07 08:09:40;;;;;;;9.43;6.82;;;17.50;99.90;;;;;;5114926;28;20103;-77
2023/05/07 08:12:07;;;;;;;13.32;7.13;;;17.60;99.90;;;;;;5114905;28;20371;-78
2023/05/07 08:14:33;;;;;;;10.65;7.13;;;17.70;99.90;;;;;;5114993;28;20019;-78
2023/05/07 08:16:58;;;;;;;10.73;6.55;;;17.70;99.90;;;;;;5115518;28;20027;-78
2023/05/07 08:19:24;;;;;;;8.38;6.18;;;18.30;99.90;;;;;;5115755;28;20016;-79
2023/05/07 08:21:50;;;;;;;11.02;6.32;;;17.80;99.90;;;;;;5114858;28;20478;-78
2023/05/07 08:24:16;;;;;;;10.25;5.90;;;18.00;99.90;;;;;;5114990;28;20024;-77
2023/05/07 08:26:42;;;;;;;10.85;6.20;;;17.90;99.90;;;;;;5113594;28;20482;-78
2023/05/07 08:29:08;;;;;;;11.07;6.70;;;18.00;99.90;;;;;;5115057;28;20084;-77
2023/05/07 08:31:33;;;;;;;12.75;7.07;;;18.10;99.90;;;;;;5114656;28;20026;-77
2023/05/07 08:33:59;;;;;;;10.40;6.15;;;18.00;99.90;;;;;;5114318;28;20027;-77
2023/05/07 08:36:25;;;;;;;9.27;6.95;;;18.10;99.90;;;;;;5114512;28;20023;-77
2023/05/07 08:38:52;;;;;;;12.05;7.03;;;18.10;99.90;;;;;;5114358;28;20494;-77
2023/05/07 08:41:18;;;;;;;12.57;6.63;;;18.20;99.90;;;;;;5113804;28;20028;-77
2023/05/07 08:43:51;;;;;;;9.77;7.00;;;18.30;99.90;;;;;;5115453;28;20483;-77
2023/05/07 08:46:19;;;;;;;9.35;6.15;;;18.40;99.90;;;;;;5114671;28;20470;-78
2023/05/07 08:48:47;;;;;;;9.97;6.13;;;18.40;99.90;;;;;;5115496;28;20019;-76
2023/05/07 08:51:13;;;;;;;9.90;5.68;;;18.40;99.90;;;;;;5112758;28;20023;-76
2023/05/07 08:53:41;;;;;;;10.90;5.80;;;18.40;99.90;;;;;;5113863;28;20439;-76
2023/05/07 08:56:08;;;;;;;9.38;5.32;;;18.40;99.90;;;;;;5114135;28;20016;-77
2023/05/07 08:58:34;;;;;;;7.88;5.28;;;18.40;99.90;;;;;;5112733;28;20394;-77
2023/05/07 09:01:04;;;;;;;7.40;5.30;;;18.50;99.90;;;;;;5113863;28;20020;-77
2023/05/07 09:03:31;;;;;;;9.18;4.68;;;18.50;99.90;;;;;;5112479;28;20077;-77
2023/05/07 09:05:56;;;;;;;9.57;6.15;;;18.50;99.90;;;;;;5112918;28;20528;-76
2023/05/07 09:08:25;;;;;;;6.93;4.78;;;18.50;99.90;;;;;;5114818;28;20012;-77
2023/05/07 09:10:52;;;;;;;6.03;4.68;;;18.60;99.90;;;;;;5117004;28;20386;-77
2023/05/07 09:13:18;;;;;;;9.07;4.45;;;18.60;99.90;;;;;;5113440;28;20102;-76
2023/05/07 09:15:44;;;;;;;7.63;4.40;;;;;;;;;;5114986;28;20095;-77
2023/05/07 09:18:09;;;;;;;9.70;4.25;;;18.70;99.90;;;;;;5114084;28;20486;-75
2023/05/07 09:20:37;;;;;;;5.97;4.18;;;18.70;99.90;;;;;;5113635;28;20015;-77
2023/05/07 09:23:03;;;;;;;7.93;4.57;;;18.80;99.90;;;;;;5112199;28;20539;-76
2023/05/07 09:25:33;;;;;;;5.80;4.35;;;19.10;99.90;;;;;;5112712;28;20023;-75
2023/05/07 09:28:00;;;;;;;5.38;3.40;;;18.90;99.90;;;;;;5113201;28;20027;-77
2023/05/07 09:30:31;;;;;;;6.80;4.32;;;19.00;99.90;;;;;;5114568;28;20031;-77
2023/05/07 09:33:02;;;;;;;10.93;4.13;;;19.10;99.90;;;;;;5114278;28;20062;-76
2023/05/07 09:35:29;;;;;;;5.70;3.95;;;19.20;99.90;;;;;;5113380;28;20069;-76
2023/05/07 09:38:00;;;;;;;6.57;4.00;;;19.20;99.90;;;;;;5111943;28;20068;-76
2023/05/07 09:40:28;;;;;;;6.05;4.45;;;19.20;99.90;;;;;;5113325;28;20031;-77
2023/05/07 09:42:54;;;;;;;6.40;4.20;;;19.30;99.90;;;;;;5112309;28;20483;-77
2023/05/07 09:45:24;;;;;;;6.90;3.90;;;19.30;99.90;;;;;;5116878;28;20371;-77
2023/05/07 09:47:54;;;;;;;7.50;4.40;;;19.40;99.90;;;;;;5117833;28;20119;-78
2023/05/07 09:50:26;;;;;;;8.57;4.57;;;19.60;99.90;;;;;;5116679;28;20509;-77
2023/05/07 09:52:52;;;;;;;6.40;4.35;;;19.50;99.90;;;;;;5117439;28;20057;-77
2023/05/07 09:55:18;;;;;;;7.05;4.05;;;19.80;99.90;;;;;;5117197;28;20066;-77
2023/05/07 09:57:45;;;;;;;8.38;4.80;;;19.90;99.90;;;;;;5116309;28;20023;-76
2023/05/07 10:00:12;;;;;;;6.75;4.90;;;20.00;99.90;;;;;;5116734;28;20026;-76
2023/05/07 10:02:46;;;;;;;6.95;3.65;;;20.10;99.90;;;;;;5117224;28;20077;-75
2023/05/07 10:05:12;;;;;;;4.72;3.47;;;20.20;99.90;;;;;;5118570;28;20069;-77
2023/05/07 10:07:38;;;;;;;8.40;4.88;;;20.30;99.90;;;;;;5117299;28;20443;-77
2023/05/07 10:10:06;;;;;;;7.43;3.75;;;20.50;99.90;;;;;;5115652;28;20020;-77
2023/05/07 10:12:37;;;;;;;6.40;3.67;;;20.60;99.90;;;;;;5116793;28;20465;-77
2023/05/07 10:15:07;;;;;;;6.40;3.58;;;20.80;99.90;;;;;;5116606;28;20562;-77
2023/05/07 10:17:35;;;;;;;4.82;2.63;;;21.00;99.90;;;;;;5116905;28;20073;-77
2023/05/07 10:20:01;;;;;;;4.15;2.47;;;21.10;99.90;;;;;;5115348;28;20022;-77
2023/05/07 10:22:28;;;;;;;3.13;1.60;;;21.10;99.90;;;;;;5116825;28;20016;-77
2023/05/07 10:24:56;;;;;;;8.35;1.38;;;21.10;99.90;;;;;;5115145;28;20019;-77
2023/05/07 10:27:23;;;;;;;1.02;0.80;;;21.40;99.90;;;;;;5116598;28;20035;-76
2023/05/07 10:30:22;;;;;;;0.95;0.32;;;21.40;99.90;;;;;;5115276;28;20020;-76
2023/05/07 10:32:50;;;;;;;2.45;0.50;;;21.50;99.90;;;;;;5083839;28;20449;-76
2023/05/07 10:35:18;;;;;;;;;;;21.50;99.90;;;;;;5116788;28;20024;-76
2023/05/07 10:37:45;;;;;;;2.72;0.20;;;21.60;99.90;;;;;;5116501;28;20007;-77
2023/05/07 10:40:12;;;;;;;2.17;0.50;;;21.80;99.90;;;;;;5117595;28;20482;-77
2023/05/07 10:42:37;;;;;;;1.70;0.22;;;21.90;99.90;;;;;;5117768;28;20039;-77
2023/05/07 10:45:14;;;;;;;0.10;0.00;;;22.10;99.90;;;;;;5116424;28;20027;-73
2023/05/07 10:48:10;;;;;;;1.38;0.30;;;22.20;99.90;;;;;;5116436;28;20043;-76
2023/05/07 10:50:40;;;;;;;4.00;0.90;;;22.20;99.90;;;;;;5116100;28;20035;-76
2023/05/07 10:53:21;;;;;;;1.13;0.45;;;22.10;99.90;;;;;;5116673;28;20098;-75
2023/05/07 10:55:48;;;;;;;2.47;0.90;;;22.20;99.90;;;;;;5115688;28;20516;-77
2023/05/07 10:58:25;;;;;;;2.17;0.33;;;22.10;99.90;;;;;;5116776;28;20076;-77
2023/05/07 11:01:04;;;;;;;1.95;0.45;;;22.20;99.90;;;;;;5116066;28;20023;-76
2023/05/07 11:03:30;;;;;;;2.10;0.85;;;22.10;99.90;;;;;;5116070;28;20425;-75
2023/05/07 11:06:13;;;;;;;1.98;0.52;;;22.20;99.90;;;;;;5116883;28;20030;-76
2023/05/07 11:08:58;;;;;;;4.65;0.80;;;22.60;99.90;;;;;;5097881;28;20023;-76
2023/05/07 11:11:52;;;;;;;3.80;0.65;;;22.90;99.90;;;;;;5116178;28;20539;-76
2023/05/07 11:14:43;;;;;;;3.88;0.47;;;23.20;99.90;;;;;;5117106;28;20024;-78
2023/05/07 11:17:10;;;;;;;1.75;0.57;;;23.70;99.90;;;;;;5115779;28;20429;-76
2023/05/07 11:19:52;;;;;;;1.75;0.55;;;23.60;99.90;;;;;;5097465;28;20022;-78
2023/05/07 11:22:33;;;;;;;7.10;1.17;;;23.90;99.90;;;;;;5115810;28;20020;-76
2023/05/07 11:25:03;;;;;;;2.05;0.50;;;24.10;99.90;;;;;;5115319;28;20020;-76
2023/05/07 11:27:29;;;;;;;1.35;0.45;;;24.20;99.90;;;;;;5116198;28;20023;-77
2023/05/07 11:29:55;;;;;;;1.40;0.73;;;24.20;99.90;;;;;;5115984;28;20020;-77
2023/05/07 11:32:24;;;;;;;3.38;0.82;;;24.30;99.90;;;;;;5097186;28;20386;-77
2023/05/07 11:34:54;;;;;;;2.50;0.77;;;24.20;99.90;;;;;;5115237;28;20023;-77
2023/05/07 11:37:20;;;;;;;3.10;0.40;;;24.30;99.90;;;;;;5115637;28;20093;-77
2023/05/07 11:39:46;;;;;;;1.73;0.38;;;24.30;99.90;;;;;;5116689;28;20501;-77
2023/05/07 11:42:32;;;;;;;1.45;0.63;;;24.20;99.90;;;;;;5097206;28;20028;-76
2023/05/07 11:44:58;;;;;;;1.13;0.47;;;24.50;99.90;;;;;;5115420;28;20057;-76
2023/05/07 11:47:25;;;;;;;2.65;0.40;;;25.10;99.90;;;;;;5096789;28;20031;-76
2023/05/07 11:49:55;;;;;;;1.67;0.70;;;25.10;99.90;;;;;;5115293;28;20038;-78
2023/05/07 11:52:22;;;;;;;1.38;0.55;;;25.30;99.90;;;;;;5116087;28;20028;-76
2023/05/07 11:54:56;;;;;;;2.63;0.53;;;25.60;99.90;;;;;;5116571;28;20023;-77
2023/05/07 11:57:22;;;;;;;2.80;0.82;;;25.60;99.90;;;;;;5096760;28;20282;-76
2023/05/07 11:59:52;;;;;;;2.90;1.30;;;25.70;99.90;;;;;;5115355;28;20028;-76
2023/05/07 12:02:17;;;;;;;3.78;1.05;;;25.80;99.90;;;;;;5115451;28;20072;-76
2023/05/07 12:04:44;;;;;;;5.50;1.42;;;26.00;99.90;;;;;;5115576;28;20023;-78
2023/05/07 12:07:16;;;;;;;2.95;1.02;;;26.00;99.90;;;;;;5115477;28;20479;-76
2023/05/07 12:09:42;;;;;;;3.97;1.15;;;26.00;99.90;;;;;;5114709;28;20478;-75
2023/05/07 12:12:08;;;;;;;2.17;0.95;;;26.10;99.90;;;;;;5115258;28;20113;-76
2023/05/07 12:14:41;;;;;;;2.42;1.17;;;26.10;99.90;;;;;;5115625;28;20387;-75
2023/05/07 12:17:10;;;;;;;1.60;0.82;;;26.10;99.90;;;;;;5114549;28;20508;-77
2023/05/07 12:19:37;;;;;;;1.38;0.40;;;26.10;99.90;;;;;;5114486;28;20494;-76
2023/05/07 12:22:03;;;;;;;3.03;0.82;;;26.40;99.90;;;;;;5115315;28;20024;-76
2023/05/07 12:24:41;;;;;;;3.00;1.75;;;26.70;98.80;;;;;;5114886;28;20056;-77
2023/05/07 12:27:06;;;;;;;11.80;1.13;;;26.70;98.80;;;;;;5115506;28;20559;-78
2023/05/07 12:29:35;;;;;;;1.50;0.63;;;26.70;99.00;;;;;;5096642;28;20024;-77
2023/05/07 12:32:01;;;;;;;4.07;0.98;;;26.70;98.30;;;;;;5114877;28;20031;-78
2023/05/07 12:34:27;;;;;;;3.10;0.70;;;26.70;98.30;;;;;;5115349;28;20024;-76
2023/05/07 12:36:53;;;;;;;4.35;1.83;;;26.80;95.10;;;;;;5115412;28;20490;-75
2023/05/07 12:39:18;;;;;;;3.75;1.17;;;26.50;95.40;;;;;;5096081;28;20051;-76
2023/05/07 12:42:02;;;;;;;1.02;0.40;;;26.30;97.00;;;;;;5114162;28;20035;-77